sensor_id;sensor_type;location;lat;lon;timestamp;P1;durP1;ratioP1;P2;durP2;ratioP2
40339;SDS011;26044;50.864;20.658;2022-09-03T00:01:52;7.82;;;2.35;;
40339;SDS011;26044;50.864;20.658;2022-09-03T00:10:19;8.65;;;2.95;;
40339;SDS011;26044;50.864;20.658;2022-09-03T00:12:51;11.93;;;3.05;;
40339;SDS011;26044;50.864;20.658;2022-09-03T00:15:22;11.13;;;3.28;;
40339;SDS011;26044;50.864;20.658;2022-09-03T00:20:20;9.07;;;3.22;;
40339;SDS011;26044;50.864;20.658;2022-09-03T00:23:11;7.57;;;2.80;;
40339;SDS011;26044;50.864;20.658;2022-09-03T00:25:45;13.05;;;3.60;;
40339;SDS011;26044;50.864;20.658;2022-09-03T00:28:21;11.95;;;3.90;;
40339;SDS011;26044;50.864;20.658;2022-09-03T00:31:00;8.48;;;3.20;;
40339;SDS011;26044;50.864;20.658;2022-09-03T00:33:46;8.55;;;3.05;;
40339;SDS011;26044;50.864;20.658;2022-09-03T00:36:20;8.70;;;2.90;;
40339;SDS011;26044;50.864;20.658;2022-09-03T00:38:57;9.35;;;3.17;;
40339;SDS011;26044;50.864;20.658;2022-09-03T00:41:32;9.93;;;3.20;;
40339;SDS011;26044;50.864;20.658;2022-09-03T00:47:25;9.23;;;2.70;;
40339;SDS011;26044;50.864;20.658;2022-09-03T00:52:58;9.40;;;3.22;;
40339;SDS011;26044;50.864;20.658;2022-09-03T01:00:42;7.03;;;2.65;;
40339;SDS011;26044;50.864;20.658;2022-09-03T01:03:15;9.23;;;2.85;;
40339;SDS011;26044;50.864;20.658;2022-09-03T01:05:59;8.82;;;2.63;;
40339;SDS011;26044;50.864;20.658;2022-09-03T01:17:29;9.32;;;2.92;;
40339;SDS011;26044;50.864;20.658;2022-09-03T01:20:11;6.85;;;2.50;;
40339;SDS011;26044;50.864;20.658;2022-09-03T01:28:37;9.27;;;2.80;;
40339;SDS011;26044;50.864;20.658;2022-09-03T01:31:28;12.60;;;2.75;;
40339;SDS011;26044;50.864;20.658;2022-09-03T01:34:19;6.25;;;2.22;;
40339;SDS011;26044;50.864;20.658;2022-09-03T01:36:51;10.52;;;3.15;;
40339;SDS011;26044;50.864;20.658;2022-09-03T01:45:22;10.82;;;3.08;;
40339;SDS011;26044;50.864;20.658;2022-09-03T01:48:16;12.02;;;2.70;;
40339;SDS011;26044;50.864;20.658;2022-09-03T01:51:05;9.98;;;2.95;;
40339;SDS011;26044;50.864;20.658;2022-09-03T01:54:08;10.70;;;3.33;;
40339;SDS011;26044;50.864;20.658;2022-09-03T01:57:03;7.40;;;2.72;;
40339;SDS011;26044;50.864;20.658;2022-09-03T02:00:09;10.35;;;3.22;;
40339;SDS011;26044;50.864;20.658;2022-09-03T02:02:48;8.07;;;2.97;;
40339;SDS011;26044;50.864;20.658;2022-09-03T02:05:21;8.25;;;3.08;;
40339;SDS011;26044;50.864;20.658;2022-09-03T02:10:32;10.45;;;2.78;;
40339;SDS011;26044;50.864;20.658;2022-09-03T02:13:06;8.02;;;2.90;;
40339;SDS011;26044;50.864;20.658;2022-09-03T02:15:43;8.00;;;2.72;;
40339;SDS011;26044;50.864;20.658;2022-09-03T02:18:14;10.93;;;3.08;;
40339;SDS011;26044;50.864;20.658;2022-09-03T02:20:43;12.93;;;3.47;;
40339;SDS011;26044;50.864;20.658;2022-09-03T02:23:13;10.13;;;3.13;;
40339;SDS011;26044;50.864;20.658;2022-09-03T02:25:42;8.85;;;3.25;;
40339;SDS011;26044;50.864;20.658;2022-09-03T02:28:13;12.05;;;3.58;;
40339;SDS011;26044;50.864;20.658;2022-09-03T02:30:42;9.82;;;2.92;;
40339;SDS011;26044;50.864;20.658;2022-09-03T02:33:09;11.00;;;3.30;;
40339;SDS011;26044;50.864;20.658;2022-09-03T02:35:36;9.63;;;3.63;;
40339;SDS011;26044;50.864;20.658;2022-09-03T02:38:11;10.80;;;3.50;;
40339;SDS011;26044;50.864;20.658;2022-09-03T02:40:39;11.68;;;3.38;;
40339;SDS011;26044;50.864;20.658;2022-09-03T02:43:07;11.57;;;3.70;;
40339;SDS011;26044;50.864;20.658;2022-09-03T02:45:51;13.00;;;4.05;;
40339;SDS011;26044;50.864;20.658;2022-09-03T02:48:22;12.32;;;3.60;;
40339;SDS011;26044;50.864;20.658;2022-09-03T02:50:49;13.30;;;4.00;;
40339;SDS011;26044;50.864;20.658;2022-09-03T02:53:16;16.00;;;4.20;;
40339;SDS011;26044;50.864;20.658;2022-09-03T02:55:43;14.15;;;3.83;;
40339;SDS011;26044;50.864;20.658;2022-09-03T02:58:10;14.93;;;4.65;;
40339;SDS011;26044;50.864;20.658;2022-09-03T03:00:37;13.75;;;3.90;;
40339;SDS011;26044;50.864;20.658;2022-09-03T03:03:03;14.35;;;4.05;;
40339;SDS011;26044;50.864;20.658;2022-09-03T03:05:50;11.82;;;3.50;;
40339;SDS011;26044;50.864;20.658;2022-09-03T03:08:23;12.43;;;3.78;;
40339;SDS011;26044;50.864;20.658;2022-09-03T03:10:54;11.82;;;3.90;;
40339;SDS011;26044;50.864;20.658;2022-09-03T03:13:24;10.50;;;3.38;;
40339;SDS011;26044;50.864;20.658;2022-09-03T03:16:01;14.00;;;3.85;;
40339;SDS011;26044;50.864;20.658;2022-09-03T03:18:31;15.75;;;4.07;;
40339;SDS011;26044;50.864;20.658;2022-09-03T03:21:03;9.85;;;3.58;;
40339;SDS011;26044;50.864;20.658;2022-09-03T03:23:32;14.02;;;4.28;;
40339;SDS011;26044;50.864;20.658;2022-09-03T03:26:02;12.63;;;3.92;;
40339;SDS011;26044;50.864;20.658;2022-09-03T03:28:31;14.98;;;3.95;;
40339;SDS011;26044;50.864;20.658;2022-09-03T03:31:06;11.57;;;3.70;;
40339;SDS011;26044;50.864;20.658;2022-09-03T03:33:38;17.48;;;4.28;;
40339;SDS011;26044;50.864;20.658;2022-09-03T03:36:12;14.82;;;4.53;;
40339;SDS011;26044;50.864;20.658;2022-09-03T03:38:42;14.32;;;3.92;;
40339;SDS011;26044;50.864;20.658;2022-09-03T03:41:10;12.23;;;4.18;;
40339;SDS011;26044;50.864;20.658;2022-09-03T03:43:44;12.45;;;4.40;;
40339;SDS011;26044;50.864;20.658;2022-09-03T03:46:11;15.10;;;4.18;;
40339;SDS011;26044;50.864;20.658;2022-09-03T03:48:40;15.23;;;3.95;;
40339;SDS011;26044;50.864;20.658;2022-09-03T03:51:08;13.75;;;3.70;;
40339;SDS011;26044;50.864;20.658;2022-09-03T03:53:36;9.40;;;3.60;;
40339;SDS011;26044;50.864;20.658;2022-09-03T03:56:04;11.27;;;4.00;;
40339;SDS011;26044;50.864;20.658;2022-09-03T03:58:35;15.00;;;4.20;;
40339;SDS011;26044;50.864;20.658;2022-09-03T04:01:06;12.40;;;4.28;;
40339;SDS011;26044;50.864;20.658;2022-09-03T04:03:39;12.48;;;3.80;;
40339;SDS011;26044;50.864;20.658;2022-09-03T04:06:07;12.00;;;3.97;;
40339;SDS011;26044;50.864;20.658;2022-09-03T04:08:35;12.02;;;4.18;;
40339;SDS011;26044;50.864;20.658;2022-09-03T04:11:04;16.00;;;4.22;;
40339;SDS011;26044;50.864;20.658;2022-09-03T04:13:34;12.90;;;4.28;;
40339;SDS011;26044;50.864;20.658;2022-09-03T04:16:18;13.13;;;4.13;;
40339;SDS011;26044;50.864;20.658;2022-09-03T04:18:51;12.50;;;4.32;;
40339;SDS011;26044;50.864;20.658;2022-09-03T04:21:20;14.75;;;3.90;;
40339;SDS011;26044;50.864;20.658;2022-09-03T04:23:49;12.20;;;3.77;;
40339;SDS011;26044;50.864;20.658;2022-09-03T04:26:17;13.35;;;4.10;;
40339;SDS011;26044;50.864;20.658;2022-09-03T04:28:58;13.48;;;3.83;;
40339;SDS011;26044;50.864;20.658;2022-09-03T04:31:30;13.30;;;3.90;;
40339;SDS011;26044;50.864;20.658;2022-09-03T04:33:57;13.45;;;3.97;;
40339;SDS011;26044;50.864;20.658;2022-09-03T04:36:25;13.82;;;4.93;;
40339;SDS011;26044;50.864;20.658;2022-09-03T04:38:54;17.48;;;5.13;;
40339;SDS011;26044;50.864;20.658;2022-09-03T04:41:24;15.95;;;4.63;;
40339;SDS011;26044;50.864;20.658;2022-09-03T04:43:53;16.70;;;4.87;;
40339;SDS011;26044;50.864;20.658;2022-09-03T04:46:22;15.27;;;4.45;;
40339;SDS011;26044;50.864;20.658;2022-09-03T04:48:52;15.48;;;4.55;;
40339;SDS011;26044;50.864;20.658;2022-09-03T04:51:21;13.98;;;4.28;;
40339;SDS011;26044;50.864;20.658;2022-09-03T04:53:54;17.25;;;4.28;;
40339;SDS011;26044;50.864;20.658;2022-09-03T04:56:24;15.68;;;4.25;;
40339;SDS011;26044;50.864;20.658;2022-09-03T04:58:56;13.88;;;3.40;;
40339;SDS011;26044;50.864;20.658;2022-09-03T05:01:25;15.52;;;3.85;;
40339;SDS011;26044;50.864;20.658;2022-09-03T05:03:57;14.18;;;4.35;;
40339;SDS011;26044;50.864;20.658;2022-09-03T05:06:26;13.90;;;3.80;;
40339;SDS011;26044;50.864;20.658;2022-09-03T05:08:54;12.30;;;4.10;;
40339;SDS011;26044;50.864;20.658;2022-09-03T05:11:22;15.23;;;4.47;;
40339;SDS011;26044;50.864;20.658;2022-09-03T05:13:50;12.50;;;4.18;;
40339;SDS011;26044;50.864;20.658;2022-09-03T05:16:19;16.58;;;5.35;;
40339;SDS011;26044;50.864;20.658;2022-09-03T05:18:47;15.73;;;4.38;;
40339;SDS011;26044;50.864;20.658;2022-09-03T05:21:17;13.30;;;4.10;;
40339;SDS011;26044;50.864;20.658;2022-09-03T05:23:44;15.55;;;4.53;;
40339;SDS011;26044;50.864;20.658;2022-09-03T05:26:13;18.02;;;6.10;;
40339;SDS011;26044;50.864;20.658;2022-09-03T05:28:43;18.40;;;5.68;;
40339;SDS011;26044;50.864;20.658;2022-09-03T05:33:45;21.13;;;5.00;;
40339;SDS011;26044;50.864;20.658;2022-09-03T05:36:17;15.50;;;4.93;;
40339;SDS011;26044;50.864;20.658;2022-09-03T05:38:47;16.40;;;4.65;;
40339;SDS011;26044;50.864;20.658;2022-09-03T05:41:15;18.65;;;4.85;;
40339;SDS011;26044;50.864;20.658;2022-09-03T05:43:44;23.85;;;5.13;;
40339;SDS011;26044;50.864;20.658;2022-09-03T05:46:17;16.02;;;4.38;;
40339;SDS011;26044;50.864;20.658;2022-09-03T05:48:44;19.73;;;4.85;;
40339;SDS011;26044;50.864;20.658;2022-09-03T05:51:15;19.13;;;5.70;;
40339;SDS011;26044;50.864;20.658;2022-09-03T05:53:46;19.48;;;4.80;;
40339;SDS011;26044;50.864;20.658;2022-09-03T05:56:15;15.68;;;4.80;;
40339;SDS011;26044;50.864;20.658;2022-09-03T05:58:44;13.63;;;4.68;;
40339;SDS011;26044;50.864;20.658;2022-09-03T06:03:41;19.30;;;4.80;;
40339;SDS011;26044;50.864;20.658;2022-09-03T06:06:09;18.13;;;4.95;;
40339;SDS011;26044;50.864;20.658;2022-09-03T06:08:40;13.93;;;4.82;;
40339;SDS011;26044;50.864;20.658;2022-09-03T06:11:07;13.43;;;4.53;;
40339;SDS011;26044;50.864;20.658;2022-09-03T06:13:34;13.32;;;4.53;;
40339;SDS011;26044;50.864;20.658;2022-09-03T06:16:03;18.73;;;5.35;;
40339;SDS011;26044;50.864;20.658;2022-09-03T06:18:31;12.32;;;4.20;;
40339;SDS011;26044;50.864;20.658;2022-09-03T06:20:59;15.70;;;4.55;;
40339;SDS011;26044;50.864;20.658;2022-09-03T06:23:28;21.95;;;4.53;;
40339;SDS011;26044;50.864;20.658;2022-09-03T06:26:08;14.55;;;4.60;;
40339;SDS011;26044;50.864;20.658;2022-09-03T06:28:38;16.08;;;4.85;;
40339;SDS011;26044;50.864;20.658;2022-09-03T06:31:06;16.67;;;4.43;;
40339;SDS011;26044;50.864;20.658;2022-09-03T06:33:35;15.30;;;4.43;;
40339;SDS011;26044;50.864;20.658;2022-09-03T06:36:04;14.32;;;4.75;;
40339;SDS011;26044;50.864;20.658;2022-09-03T06:38:34;15.95;;;5.25;;
40339;SDS011;26044;50.864;20.658;2022-09-03T06:41:03;16.13;;;4.75;;
40339;SDS011;26044;50.864;20.658;2022-09-03T06:43:33;14.60;;;4.72;;
40339;SDS011;26044;50.864;20.658;2022-09-03T06:48:30;20.00;;;5.55;;
40339;SDS011;26044;50.864;20.658;2022-09-03T06:50:59;16.30;;;5.38;;
40339;SDS011;26044;50.864;20.658;2022-09-03T06:53:33;18.05;;;5.30;;
40339;SDS011;26044;50.864;20.658;2022-09-03T06:56:04;15.68;;;5.43;;
40339;SDS011;26044;50.864;20.658;2022-09-03T06:58:34;21.40;;;5.97;;
40339;SDS011;26044;50.864;20.658;2022-09-03T07:01:07;16.30;;;5.10;;
40339;SDS011;26044;50.864;20.658;2022-09-03T07:03:36;18.48;;;5.10;;
40339;SDS011;26044;50.864;20.658;2022-09-03T07:06:05;17.02;;;5.70;;
40339;SDS011;26044;50.864;20.658;2022-09-03T07:08:36;17.42;;;5.25;;
40339;SDS011;26044;50.864;20.658;2022-09-03T07:11:04;13.82;;;4.95;;
40339;SDS011;26044;50.864;20.658;2022-09-03T07:13:35;16.20;;;5.05;;
40339;SDS011;26044;50.864;20.658;2022-09-03T07:16:05;20.83;;;5.00;;
40339;SDS011;26044;50.864;20.658;2022-09-03T07:18:33;17.03;;;5.03;;
40339;SDS011;26044;50.864;20.658;2022-09-03T07:21:01;14.75;;;5.40;;
40339;SDS011;26044;50.864;20.658;2022-09-03T07:23:34;15.77;;;5.03;;
40339;SDS011;26044;50.864;20.658;2022-09-03T07:26:03;14.65;;;4.85;;
40339;SDS011;26044;50.864;20.658;2022-09-03T07:28:33;19.95;;;5.40;;
40339;SDS011;26044;50.864;20.658;2022-09-03T07:31:03;15.93;;;4.72;;
40339;SDS011;26044;50.864;20.658;2022-09-03T07:33:30;17.77;;;5.32;;
40339;SDS011;26044;50.864;20.658;2022-09-03T07:36:03;17.58;;;5.10;;
40339;SDS011;26044;50.864;20.658;2022-09-03T07:38:34;14.02;;;4.65;;
40339;SDS011;26044;50.864;20.658;2022-09-03T07:41:03;18.30;;;5.25;;
40339;SDS011;26044;50.864;20.658;2022-09-03T07:46:01;15.45;;;4.65;;
40339;SDS011;26044;50.864;20.658;2022-09-03T07:48:29;12.50;;;4.60;;
40339;SDS011;26044;50.864;20.658;2022-09-03T07:51:02;15.63;;;4.72;;
40339;SDS011;26044;50.864;20.658;2022-09-03T07:53:29;11.88;;;4.15;;
40339;SDS011;26044;50.864;20.658;2022-09-03T07:56:06;17.05;;;4.70;;
40339;SDS011;26044;50.864;20.658;2022-09-03T07:58:36;13.15;;;4.32;;
40339;SDS011;26044;50.864;20.658;2022-09-03T08:01:05;16.13;;;4.75;;
40339;SDS011;26044;50.864;20.658;2022-09-03T08:03:43;14.70;;;4.15;;
40339;SDS011;26044;50.864;20.658;2022-09-03T08:06:11;17.73;;;4.72;;
40339;SDS011;26044;50.864;20.658;2022-09-03T08:08:39;16.25;;;4.65;;
40339;SDS011;26044;50.864;20.658;2022-09-03T08:13:38;12.13;;;4.32;;
40339;SDS011;26044;50.864;20.658;2022-09-03T08:16:10;12.35;;;4.15;;
40339;SDS011;26044;50.864;20.658;2022-09-03T08:18:38;18.17;;;4.47;;
40339;SDS011;26044;50.864;20.658;2022-09-03T08:21:06;12.60;;;4.57;;
40339;SDS011;26044;50.864;20.658;2022-09-03T08:23:41;15.52;;;4.57;;
40339;SDS011;26044;50.864;20.658;2022-09-03T08:26:10;13.25;;;4.45;;
40339;SDS011;26044;50.864;20.658;2022-09-03T08:28:37;13.90;;;4.68;;
40339;SDS011;26044;50.864;20.658;2022-09-03T08:31:14;14.85;;;4.75;;
40339;SDS011;26044;50.864;20.658;2022-09-03T08:33:44;12.05;;;4.20;;
40339;SDS011;26044;50.864;20.658;2022-09-03T08:38:56;13.93;;;4.30;;
40339;SDS011;26044;50.864;20.658;2022-09-03T08:41:36;13.57;;;4.40;;
40339;SDS011;26044;50.864;20.658;2022-09-03T08:49:26;11.70;;;3.83;;
40339;SDS011;26044;50.864;20.658;2022-09-03T08:52:06;10.48;;;4.05;;
40339;SDS011;26044;50.864;20.658;2022-09-03T08:54:44;8.07;;;3.70;;
40339;SDS011;26044;50.864;20.658;2022-09-03T08:57:12;14.75;;;4.57;;
40339;SDS011;26044;50.864;20.658;2022-09-03T08:59:40;13.48;;;4.28;;
40339;SDS011;26044;50.864;20.658;2022-09-03T09:02:21;16.33;;;4.13;;
40339;SDS011;26044;50.864;20.658;2022-09-03T09:07:37;12.07;;;4.13;;
40339;SDS011;26044;50.864;20.658;2022-09-03T09:13:26;13.52;;;4.35;;
40339;SDS011;26044;50.864;20.658;2022-09-03T09:21:33;10.63;;;4.00;;
40339;SDS011;26044;50.864;20.658;2022-09-03T09:24:15;14.68;;;4.35;;
40339;SDS011;26044;50.864;20.658;2022-09-03T09:26:59;12.20;;;4.15;;
40339;SDS011;26044;50.864;20.658;2022-09-03T09:29:39;11.85;;;4.20;;
40339;SDS011;26044;50.864;20.658;2022-09-03T09:32:07;10.15;;;4.13;;
40339;SDS011;26044;50.864;20.658;2022-09-03T09:34:37;12.95;;;4.38;;
40339;SDS011;26044;50.864;20.658;2022-09-03T09:37:13;13.50;;;3.93;;
40339;SDS011;26044;50.864;20.658;2022-09-03T09:39:51;14.38;;;4.05;;
40339;SDS011;26044;50.864;20.658;2022-09-03T09:42:21;14.57;;;4.22;;
40339;SDS011;26044;50.864;20.658;2022-09-03T09:44:48;13.18;;;3.80;;
40339;SDS011;26044;50.864;20.658;2022-09-03T09:47:19;11.07;;;3.75;;
40339;SDS011;26044;50.864;20.658;2022-09-03T09:50:02;9.68;;;3.90;;
40339;SDS011;26044;50.864;20.658;2022-09-03T09:52:29;13.43;;;3.85;;
40339;SDS011;26044;50.864;20.658;2022-09-03T09:55:07;16.08;;;4.90;;
40339;SDS011;26044;50.864;20.658;2022-09-03T09:57:42;12.18;;;3.90;;
40339;SDS011;26044;50.864;20.658;2022-09-03T10:00:11;9.68;;;3.83;;
40339;SDS011;26044;50.864;20.658;2022-09-03T10:02:45;15.02;;;4.45;;
40339;SDS011;26044;50.864;20.658;2022-09-03T10:05:19;15.98;;;5.18;;
40339;SDS011;26044;50.864;20.658;2022-09-03T10:07:55;14.98;;;4.68;;
40339;SDS011;26044;50.864;20.658;2022-09-03T10:10:24;14.50;;;3.92;;
40339;SDS011;26044;50.864;20.658;2022-09-03T10:12:57;14.25;;;3.80;;
40339;SDS011;26044;50.864;20.658;2022-09-03T10:15:41;10.02;;;3.67;;
40339;SDS011;26044;50.864;20.658;2022-09-03T10:18:14;15.45;;;3.90;;
40339;SDS011;26044;50.864;20.658;2022-09-03T10:23:47;13.63;;;4.07;;
40339;SDS011;26044;50.864;20.658;2022-09-03T10:26:20;15.03;;;4.50;;
40339;SDS011;26044;50.864;20.658;2022-09-03T10:29:00;16.33;;;5.53;;
40339;SDS011;26044;50.864;20.658;2022-09-03T10:34:40;11.63;;;4.68;;
40339;SDS011;26044;50.864;20.658;2022-09-03T10:46:22;11.30;;;3.80;;
40339;SDS011;26044;50.864;20.658;2022-09-03T10:51:34;15.00;;;4.13;;
40339;SDS011;26044;50.864;20.658;2022-09-03T10:59:47;12.90;;;3.92;;
40339;SDS011;26044;50.864;20.658;2022-09-03T11:02:35;18.60;;;4.20;;
40339;SDS011;26044;50.864;20.658;2022-09-03T11:07:48;13.10;;;3.78;;
40339;SDS011;26044;50.864;20.658;2022-09-03T11:10:24;8.55;;;3.47;;
40339;SDS011;26044;50.864;20.658;2022-09-03T11:13:13;15.52;;;4.18;;
40339;SDS011;26044;50.864;20.658;2022-09-03T11:15:59;11.07;;;3.97;;
40339;SDS011;26044;50.864;20.658;2022-09-03T11:18:31;13.45;;;3.92;;
40339;SDS011;26044;50.864;20.658;2022-09-03T11:21:02;18.30;;;3.58;;
40339;SDS011;26044;50.864;20.658;2022-09-03T11:23:40;9.98;;;3.53;;
40339;SDS011;26044;50.864;20.658;2022-09-03T11:26:13;11.57;;;3.58;;
40339;SDS011;26044;50.864;20.658;2022-09-03T11:31:44;11.70;;;3.15;;
40339;SDS011;26044;50.864;20.658;2022-09-03T11:34:14;12.77;;;3.42;;
40339;SDS011;26044;50.864;20.658;2022-09-03T11:37:44;8.35;;;3.08;;
40339;SDS011;26044;50.864;20.658;2022-09-03T11:42:37;17.25;;;4.93;;
40339;SDS011;26044;50.864;20.658;2022-09-03T11:45:20;11.10;;;3.25;;
40339;SDS011;26044;50.864;20.658;2022-09-03T11:47:56;9.73;;;2.83;;
40339;SDS011;26044;50.864;20.658;2022-09-03T11:50:25;11.75;;;3.70;;
40339;SDS011;26044;50.864;20.658;2022-09-03T11:53:05;11.13;;;3.50;;
40339;SDS011;26044;50.864;20.658;2022-09-03T12:00:47;9.02;;;3.00;;
40339;SDS011;26044;50.864;20.658;2022-09-03T12:03:28;11.70;;;3.78;;
40339;SDS011;26044;50.864;20.658;2022-09-03T12:15:05;13.32;;;4.40;;
40339;SDS011;26044;50.864;20.658;2022-09-03T12:17:47;10.25;;;3.65;;
40339;SDS011;26044;50.864;20.658;2022-09-03T12:20:42;12.45;;;4.03;;
40339;SDS011;26044;50.864;20.658;2022-09-03T12:23:09;12.27;;;3.80;;
40339;SDS011;26044;50.864;20.658;2022-09-03T12:25:43;9.65;;;3.55;;
40339;SDS011;26044;50.864;20.658;2022-09-03T12:28:17;9.82;;;3.85;;
40339;SDS011;26044;50.864;20.658;2022-09-03T12:30:49;12.15;;;3.60;;
40339;SDS011;26044;50.864;20.658;2022-09-03T12:33:20;10.93;;;3.20;;
40339;SDS011;26044;50.864;20.658;2022-09-03T12:35:58;12.55;;;3.58;;
40339;SDS011;26044;50.864;20.658;2022-09-03T12:38:27;11.90;;;3.25;;
40339;SDS011;26044;50.864;20.658;2022-09-03T12:40:54;9.38;;;3.67;;
40339;SDS011;26044;50.864;20.658;2022-09-03T12:43:48;8.80;;;3.38;;
40339;SDS011;26044;50.864;20.658;2022-09-03T12:46:17;11.23;;;3.95;;
40339;SDS011;26044;50.864;20.658;2022-09-03T12:48:56;15.88;;;4.22;;
40339;SDS011;26044;50.864;20.658;2022-09-03T12:51:49;12.82;;;3.92;;
40339;SDS011;26044;50.864;20.658;2022-09-03T12:54:23;9.65;;;3.40;;
40339;SDS011;26044;50.864;20.658;2022-09-03T12:56:54;9.23;;;3.42;;
40339;SDS011;26044;50.864;20.658;2022-09-03T12:59:23;21.92;;;6.88;;
40339;SDS011;26044;50.864;20.658;2022-09-03T13:01:55;15.77;;;5.15;;
40339;SDS011;26044;50.864;20.658;2022-09-03T13:04:28;28.38;;;11.02;;
40339;SDS011;26044;50.864;20.658;2022-09-03T13:09:32;45.50;;;20.40;;
40339;SDS011;26044;50.864;20.658;2022-09-03T13:12:01;18.85;;;7.15;;
40339;SDS011;26044;50.864;20.658;2022-09-03T13:14:42;16.52;;;4.28;;
40339;SDS011;26044;50.864;20.658;2022-09-03T13:17:14;9.10;;;3.30;;
40339;SDS011;26044;50.864;20.658;2022-09-03T13:25:45;12.35;;;3.40;;
40339;SDS011;26044;50.864;20.658;2022-09-03T13:34:39;13.07;;;3.80;;
40339;SDS011;26044;50.864;20.658;2022-09-03T13:37:24;9.77;;;3.40;;
40339;SDS011;26044;50.864;20.658;2022-09-03T13:40:23;11.50;;;4.07;;
40339;SDS011;26044;50.864;20.658;2022-09-03T13:43:01;12.77;;;3.67;;
40339;SDS011;26044;50.864;20.658;2022-09-03T13:45:56;13.80;;;4.15;;
40339;SDS011;26044;50.864;20.658;2022-09-03T13:54:17;8.90;;;3.70;;
40339;SDS011;26044;50.864;20.658;2022-09-03T14:00:10;10.52;;;3.90;;
40339;SDS011;26044;50.864;20.658;2022-09-03T14:05:18;10.45;;;3.47;;
40339;SDS011;26044;50.864;20.658;2022-09-03T14:08:12;11.55;;;3.80;;
40339;SDS011;26044;50.864;20.658;2022-09-03T14:11:04;9.73;;;4.00;;
40339;SDS011;26044;50.864;20.658;2022-09-03T14:19:40;13.27;;;3.80;;
40339;SDS011;26044;50.864;20.658;2022-09-03T14:23:33;10.55;;;3.50;;
40339;SDS011;26044;50.864;20.658;2022-09-03T14:25:54;18.30;;;5.90;;
40339;SDS011;26044;50.864;20.658;2022-09-03T14:31:40;8.50;;;3.63;;
40339;SDS011;26044;50.864;20.658;2022-09-03T14:34:09;11.90;;;3.85;;
40339;SDS011;26044;50.864;20.658;2022-09-03T14:36:52;8.68;;;3.35;;
40339;SDS011;26044;50.864;20.658;2022-09-03T14:39:32;12.68;;;4.70;;
40339;SDS011;26044;50.864;20.658;2022-09-03T14:50:21;18.20;;;4.53;;
40339;SDS011;26044;50.864;20.658;2022-09-03T14:52:58;14.30;;;4.30;;
40339;SDS011;26044;50.864;20.658;2022-09-03T14:55:53;11.48;;;4.50;;
40339;SDS011;26044;50.864;20.658;2022-09-03T15:01:34;12.50;;;4.75;;
40339;SDS011;26044;50.864;20.658;2022-09-03T15:09:34;13.40;;;5.03;;
40339;SDS011;26044;50.864;20.658;2022-09-03T15:15:12;13.90;;;4.88;;
40339;SDS011;26044;50.864;20.658;2022-09-03T15:17:59;15.40;;;5.07;;
40339;SDS011;26044;50.864;20.658;2022-09-03T15:35:06;15.20;;;4.45;;
40339;SDS011;26044;50.864;20.658;2022-09-03T15:37:48;12.45;;;4.93;;
40339;SDS011;26044;50.864;20.658;2022-09-03T15:40:23;13.55;;;5.53;;
40339;SDS011;26044;50.864;20.658;2022-09-03T15:43:09;12.40;;;5.55;;
40339;SDS011;26044;50.864;20.658;2022-09-03T15:45:53;14.05;;;5.63;;
40339;SDS011;26044;50.864;20.658;2022-09-03T15:48:37;19.15;;;6.88;;
40339;SDS011;26044;50.864;20.658;2022-09-03T15:53:59;15.98;;;5.50;;
40339;SDS011;26044;50.864;20.658;2022-09-03T16:02:24;18.05;;;6.00;;
40339;SDS011;26044;50.864;20.658;2022-09-03T16:07:53;13.85;;;5.03;;
40339;SDS011;26044;50.864;20.658;2022-09-03T16:10:39;13.45;;;4.68;;
40339;SDS011;26044;50.864;20.658;2022-09-03T16:13:29;10.75;;;4.65;;
40339;SDS011;26044;50.864;20.658;2022-09-03T16:19:52;10.18;;;4.15;;
40339;SDS011;26044;50.864;20.658;2022-09-03T16:22:25;12.60;;;4.18;;
40339;SDS011;26044;50.864;20.658;2022-09-03T16:24:58;16.53;;;4.97;;
40339;SDS011;26044;50.864;20.658;2022-09-03T16:27:50;13.68;;;4.53;;
40339;SDS011;26044;50.864;20.658;2022-09-03T16:30:27;9.50;;;4.15;;
40339;SDS011;26044;50.864;20.658;2022-09-03T16:33:17;10.30;;;3.92;;
40339;SDS011;26044;50.864;20.658;2022-09-03T16:44:26;14.98;;;4.80;;
40339;SDS011;26044;50.864;20.658;2022-09-03T16:50:22;14.57;;;4.40;;
40339;SDS011;26044;50.864;20.658;2022-09-03T16:58:40;18.05;;;6.80;;
40339;SDS011;26044;50.864;20.658;2022-09-03T17:07:31;19.42;;;7.40;;
40339;SDS011;26044;50.864;20.658;2022-09-03T17:15:21;19.02;;;6.90;;
40339;SDS011;26044;50.864;20.658;2022-09-03T17:20:59;17.98;;;7.32;;
40339;SDS011;26044;50.864;20.658;2022-09-03T17:26:27;17.98;;;7.15;;
40339;SDS011;26044;50.864;20.658;2022-09-03T17:29:04;21.42;;;8.07;;
40339;SDS011;26044;50.864;20.658;2022-09-03T17:32:02;22.73;;;8.55;;
40339;SDS011;26044;50.864;20.658;2022-09-03T17:34:50;20.80;;;7.22;;
40339;SDS011;26044;50.864;20.658;2022-09-03T17:40:55;23.13;;;10.20;;
40339;SDS011;26044;50.864;20.658;2022-09-03T17:49:46;35.55;;;16.58;;
40339;SDS011;26044;50.864;20.658;2022-09-03T17:52:23;33.40;;;13.68;;
40339;SDS011;26044;50.864;20.658;2022-09-03T17:58:00;29.52;;;14.10;;
40339;SDS011;26044;50.864;20.658;2022-09-03T18:03:18;28.60;;;13.93;;
40339;SDS011;26044;50.864;20.658;2022-09-03T18:05:53;26.95;;;11.90;;
40339;SDS011;26044;50.864;20.658;2022-09-03T18:11:36;25.83;;;10.95;;
40339;SDS011;26044;50.864;20.658;2022-09-03T18:14:09;26.58;;;11.38;;
40339;SDS011;26044;50.864;20.658;2022-09-03T18:19:41;22.70;;;10.13;;
40339;SDS011;26044;50.864;20.658;2022-09-03T18:22:35;24.52;;;10.25;;
40339;SDS011;26044;50.864;20.658;2022-09-03T18:25:44;30.38;;;10.45;;
40339;SDS011;26044;50.864;20.658;2022-09-03T18:28:36;27.13;;;10.15;;
40339;SDS011;26044;50.864;20.658;2022-09-03T18:31:26;28.00;;;10.95;;
40339;SDS011;26044;50.864;20.658;2022-09-03T18:34:12;26.60;;;10.80;;
40339;SDS011;26044;50.864;20.658;2022-09-03T18:36:57;26.23;;;9.77;;
40339;SDS011;26044;50.864;20.658;2022-09-03T18:39:44;25.90;;;9.88;;
40339;SDS011;26044;50.864;20.658;2022-09-03T18:42:39;26.42;;;9.48;;
40339;SDS011;26044;50.864;20.658;2022-09-03T18:45:31;23.75;;;9.43;;
40339;SDS011;26044;50.864;20.658;2022-09-03T18:48:48;26.60;;;9.52;;
40339;SDS011;26044;50.864;20.658;2022-09-03T18:55:35;28.45;;;12.52;;
40339;SDS011;26044;50.864;20.658;2022-09-03T19:01:37;31.83;;;14.38;;
40339;SDS011;26044;50.864;20.658;2022-09-03T19:10:50;36.75;;;16.27;;
40339;SDS011;26044;50.864;20.658;2022-09-03T19:13:40;37.58;;;17.45;;
40339;SDS011;26044;50.864;20.658;2022-09-03T19:16:37;44.20;;;20.80;;
40339;SDS011;26044;50.864;20.658;2022-09-03T19:19:30;42.72;;;20.50;;
40339;SDS011;26044;50.864;20.658;2022-09-03T19:25:24;45.75;;;23.15;;
40339;SDS011;26044;50.864;20.658;2022-09-03T19:37:33;37.85;;;17.67;;
40339;SDS011;26044;50.864;20.658;2022-09-03T19:46:50;39.22;;;17.95;;
40339;SDS011;26044;50.864;20.658;2022-09-03T19:52:54;39.65;;;17.55;;
40339;SDS011;26044;50.864;20.658;2022-09-03T19:55:53;39.13;;;18.42;;
40339;SDS011;26044;50.864;20.658;2022-09-03T19:58:42;41.22;;;18.42;;
40339;SDS011;26044;50.864;20.658;2022-09-03T20:01:34;36.78;;;18.48;;
40339;SDS011;26044;50.864;20.658;2022-09-03T20:04:26;38.92;;;17.83;;
40339;SDS011;26044;50.864;20.658;2022-09-03T20:07:19;40.10;;;18.58;;
40339;SDS011;26044;50.864;20.658;2022-09-03T20:10:07;35.97;;;17.90;;